sensor_id;sensor_type;location;lat;lon;timestamp;pressure;altitude;pressure_sealevel;temperature;humidity
13604;BME280;24578;48.264;11.436;2023-05-03T00:01:50;96838.44;;;5.14;100.00
13604;BME280;24578;48.264;11.436;2023-05-03T00:05:12;96829.28;;;5.07;100.00
13604;BME280;24578;48.264;11.436;2023-05-03T00:08:35;96831.13;;;5.05;100.00
13604;BME280;24578;48.264;11.436;2023-05-03T00:11:56;96843.09;;;5.05;100.00
13604;BME280;24578;48.264;11.436;2023-05-03T00:15:18;96840.91;;;4.95;100.00
13604;BME280;24578;48.264;11.436;2023-05-03T00:18:40;96831.13;;;5.05;100.00
13604;BME280;24578;48.264;11.436;2023-05-03T00:22:02;96831.94;;;5.06;100.00
13604;BME280;24578;48.264;11.436;2023-05-03T00:25:24;96830.06;;;5.09;100.00
13604;BME280;24578;48.264;11.436;2023-05-03T00:28:46;96824.31;;;5.04;100.00
13604;BME280;24578;48.264;11.436;2023-05-03T00:32:07;96816.47;;;5.07;100.00
13604;BME280;24578;48.264;11.436;2023-05-03T00:35:31;96829.44;;;5.04;100.00
13604;BME280;24578;48.264;11.436;2023-05-03T00:38:52;96822.81;;;4.98;100.00
13604;BME280;24578;48.264;11.436;2023-05-03T00:42:15;96822.81;;;4.98;100.00
13604;BME280;24578;48.264;11.436;2023-05-03T00:45:37;96822.09;;;4.95;100.00
13604;BME280;24578;48.264;11.436;2023-05-03T00:48:58;96820.94;;;4.81;100.00
13604;BME280;24578;48.264;11.436;2023-05-03T00:52:20;96810.91;;;4.75;100.00
13604;BME280;24578;48.264;11.436;2023-05-03T00:55:44;96817.53;;;4.81;100.00
13604;BME280;24578;48.264;11.436;2023-05-03T00:59:06;96814.91;;;4.82;100.00
13604;BME280;24578;48.264;11.436;2023-05-03T01:02:28;96806.25;;;4.85;100.00
13604;BME280;24578;48.264;11.436;2023-05-03T01:06:14;96826.75;;;4.85;100.00
13604;BME280;24578;48.264;11.436;2023-05-03T01:13:23;96807.97;;;4.84;100.00
13604;BME280;24578;48.264;11.436;2023-05-03T01:16:55;96810.47;;;4.86;100.00
13604;BME280;24578;48.264;11.436;2023-05-03T01:20:22;96813.22;;;4.81;100.00
13604;BME280;24578;48.264;11.436;2023-05-03T01:24:04;96808.09;;;4.81;100.00
13604;BME280;24578;48.264;11.436;2023-05-03T01:27:28;96809.97;;;4.78;100.00
13604;BME280;24578;48.264;11.436;2023-05-03T01:30:51;96806.63;;;4.76;100.00
13604;BME280;24578;48.264;11.436;2023-05-03T01:38:08;96812.16;;;4.65;100.00
13604;BME280;24578;48.264;11.436;2023-05-03T01:41:32;96815.16;;;4.54;100.00
13604;BME280;24578;48.264;11.436;2023-05-03T01:44:55;96818.66;;;4.51;100.00
13604;BME280;24578;48.264;11.436;2023-05-03T01:48:18;96817.66;;;4.55;100.00
13604;BME280;24578;48.264;11.436;2023-05-03T01:51:40;96822.50;;;4.63;100.00
13604;BME280;24578;48.264;11.436;2023-05-03T01:55:02;96823.81;;;4.51;100.00
13604;BME280;24578;48.264;11.436;2023-05-03T01:58:23;96820.22;;;4.55;100.00
13604;BME280;24578;48.264;11.436;2023-05-03T02:01:45;96823.91;;;4.48;100.00
13604;BME280;24578;48.264;11.436;2023-05-03T02:05:08;96826.44;;;4.50;100.00
13604;BME280;24578;48.264;11.436;2023-05-03T02:08:30;96830.53;;;4.54;100.00
13604;BME280;24578;48.264;11.436;2023-05-03T02:11:52;96832.97;;;4.57;100.00
13604;BME280;24578;48.264;11.436;2023-05-03T02:15:13;96836.13;;;4.64;100.00
13604;BME280;24578;48.264;11.436;2023-05-03T02:18:35;96839.59;;;4.63;100.00
13604;BME280;24578;48.264;11.436;2023-05-03T02:21:57;96847.41;;;4.60;100.00
13604;BME280;24578;48.264;11.436;2023-05-03T02:25:19;96845.03;;;4.55;100.00
13604;BME280;24578;48.264;11.436;2023-05-03T02:28:41;96838.00;;;4.60;100.00
13604;BME280;24578;48.264;11.436;2023-05-03T02:32:03;96846.69;;;4.56;100.00
13604;BME280;24578;48.264;11.436;2023-05-03T02:35:27;96837.94;;;4.62;100.00
13604;BME280;24578;48.264;11.436;2023-05-03T02:38:49;96840.25;;;4.46;100.00
13604;BME280;24578;48.264;11.436;2023-05-03T02:42:11;96840.28;;;4.44;100.00
13604;BME280;24578;48.264;11.436;2023-05-03T02:45:36;96833.63;;;4.40;100.00
13604;BME280;24578;48.264;11.436;2023-05-03T02:48:57;96837.28;;;4.34;100.00
13604;BME280;24578;48.264;11.436;2023-05-03T02:52:19;96837.69;;;4.46;100.00
13604;BME280;24578;48.264;11.436;2023-05-03T02:55:42;96829.81;;;4.50;100.00
13604;BME280;24578;48.264;11.436;2023-05-03T02:59:03;96837.63;;;4.47;100.00
13604;BME280;24578;48.264;11.436;2023-05-03T03:02:25;96831.38;;;4.54;100.00
13604;BME280;24578;48.264;11.436;2023-05-03T03:05:47;96826.88;;;4.60;100.00
13604;BME280;24578;48.264;11.436;2023-05-03T03:09:09;96836.91;;;4.66;100.00
13604;BME280;24578;48.264;11.436;2023-05-03T03:12:30;96826.00;;;4.61;100.00
13604;BME280;24578;48.264;11.436;2023-05-03T03:15:52;96828.44;;;4.64;100.00
13604;BME280;24578;48.264;11.436;2023-05-03T03:19:14;96832.75;;;4.63;100.00
13604;BME280;24578;48.264;11.436;2023-05-03T03:22:36;96836.22;;;4.62;100.00
13604;BME280;24578;48.264;11.436;2023-05-03T03:25:59;96835.34;;;4.62;100.00
13604;BME280;24578;48.264;11.436;2023-05-03T03:29:21;96835.50;;;4.59;100.00
13604;BME280;24578;48.264;11.436;2023-05-03T03:32:43;96839.88;;;4.55;100.00
13604;BME280;24578;48.264;11.436;2023-05-03T03:36:05;96835.63;;;4.55;100.00
13604;BME280;24578;48.264;11.436;2023-05-03T03:39:28;96818.44;;;4.57;100.00
13604;BME280;24578;48.264;11.436;2023-05-03T03:42:50;96822.38;;;4.66;100.00
13604;BME280;24578;48.264;11.436;2023-05-03T03:46:11;96824.66;;;4.74;100.00
13604;BME280;24578;48.264;11.436;2023-05-03T03:49:33;96825.47;;;4.75;100.00
13604;BME280;24578;48.264;11.436;2023-05-03T03:52:55;96836.38;;;4.80;100.00
13604;BME280;24578;48.264;11.436;2023-05-03T03:56:17;96841.25;;;4.86;100.00
13604;BME280;24578;48.264;11.436;2023-05-03T03:59:38;96834.88;;;4.96;100.00
13604;BME280;24578;48.264;11.436;2023-05-03T04:03:01;96832.00;;;5.04;100.00
13604;BME280;24578;48.264;11.436;2023-05-03T04:06:23;96842.97;;;5.08;100.00
13604;BME280;24578;48.264;11.436;2023-05-03T04:09:44;96850.38;;;5.15;100.00
13604;BME280;24578;48.264;11.436;2023-05-03T04:13:06;96840.69;;;5.22;100.00
13604;BME280;24578;48.264;11.436;2023-05-03T04:16:29;96847.25;;;5.29;100.00
13604;BME280;24578;48.264;11.436;2023-05-03T04:19:50;96840.88;;;5.38;100.00
13604;BME280;24578;48.264;11.436;2023-05-03T04:23:12;96845.63;;;5.47;100.00
13604;BME280;24578;48.264;11.436;2023-05-03T04:26:34;96844.28;;;5.59;100.00
13604;BME280;24578;48.264;11.436;2023-05-03T04:29:56;96850.25;;;5.60;100.00
13604;BME280;24578;48.264;11.436;2023-05-03T04:33:20;96848.44;;;5.62;100.00
13604;BME280;24578;48.264;11.436;2023-05-03T04:36:42;96858.06;;;5.57;100.00
13604;BME280;24578;48.264;11.436;2023-05-03T04:40:06;96862.50;;;5.53;100.00
13604;BME280;24578;48.264;11.436;2023-05-03T04:43:32;96863.41;;;5.52;100.00
13604;BME280;24578;48.264;11.436;2023-05-03T04:46:55;96863.75;;;5.65;100.00
13604;BME280;24578;48.264;11.436;2023-05-03T04:50:16;96869.56;;;5.69;100.00
13604;BME280;24578;48.264;11.436;2023-05-03T04:53:38;96868.28;;;5.79;100.00
13604;BME280;24578;48.264;11.436;2023-05-03T04:57:00;96864.75;;;5.82;100.00
13604;BME280;24578;48.264;11.436;2023-05-03T05:00:22;96863.25;;;5.97;100.00
13604;BME280;24578;48.264;11.436;2023-05-03T05:03:45;96864.84;;;5.99;100.00
13604;BME280;24578;48.264;11.436;2023-05-03T05:07:07;96874.84;;;6.07;100.00
13604;BME280;24578;48.264;11.436;2023-05-03T05:10:28;96876.91;;;6.18;100.00
13604;BME280;24578;48.264;11.436;2023-05-03T05:13:50;96879.56;;;6.35;100.00
13604;BME280;24578;48.264;11.436;2023-05-03T05:17:13;96881.88;;;6.42;100.00
13604;BME280;24578;48.264;11.436;2023-05-03T05:20:34;96891.88;;;6.48;100.00
13604;BME280;24578;48.264;11.436;2023-05-03T05:23:56;96891.47;;;6.57;100.00
13604;BME280;24578;48.264;11.436;2023-05-03T05:27:18;96888.31;;;6.69;100.00
13604;BME280;24578;48.264;11.436;2023-05-03T05:30:40;96892.13;;;6.80;100.00
13604;BME280;24578;48.264;11.436;2023-05-03T05:34:02;96888.28;;;6.89;100.00
13604;BME280;24578;48.264;11.436;2023-05-03T05:37:24;96898.22;;;6.96;100.00
13604;BME280;24578;48.264;11.436;2023-05-03T05:40:48;96903.72;;;7.08;100.00
13604;BME280;24578;48.264;11.436;2023-05-03T05:44:10;96899.94;;;7.15;100.00
13604;BME280;24578;48.264;11.436;2023-05-03T05:47:33;96901.09;;;7.27;100.00
13604;BME280;24578;48.264;11.436;2023-05-03T05:50:55;96899.34;;;7.27;100.00
13604;BME280;24578;48.264;11.436;2023-05-03T05:54:17;96902.97;;;7.41;100.00
13604;BME280;24578;48.264;11.436;2023-05-03T05:57:38;96903.59;;;7.46;100.00
13604;BME280;24578;48.264;11.436;2023-05-03T06:01:01;96906.47;;;7.57;100.00
13604;BME280;24578;48.264;11.436;2023-05-03T06:04:25;96902.69;;;7.65;100.00
13604;BME280;24578;48.264;11.436;2023-05-03T06:07:48;96916.63;;;7.78;100.00
13604;BME280;24578;48.264;11.436;2023-05-03T06:11:10;96910.41;;;7.82;100.00
13604;BME280;24578;48.264;11.436;2023-05-03T06:14:34;96912.09;;;7.83;100.00
13604;BME280;24578;48.264;11.436;2023-05-03T06:17:56;96907.69;;;7.85;100.00
13604;BME280;24578;48.264;11.436;2023-05-03T06:21:18;96915.09;;;7.91;100.00
13604;BME280;24578;48.264;11.436;2023-05-03T06:24:40;96910.69;;;7.93;100.00
13604;BME280;24578;48.264;11.436;2023-05-03T06:28:01;96910.59;;;7.95;100.00
13604;BME280;24578;48.264;11.436;2023-05-03T06:31:23;96920.84;;;7.97;100.00
13604;BME280;24578;48.264;11.436;2023-05-03T06:34:45;96923.03;;;8.04;100.00
13604;BME280;24578;48.264;11.436;2023-05-03T06:38:07;96914.81;;;8.14;100.00
13604;BME280;24578;48.264;11.436;2023-05-03T06:41:30;96923.69;;;8.26;100.00
13604;BME280;24578;48.264;11.436;2023-05-03T06:44:53;96920.09;;;8.28;100.00
13604;BME280;24578;48.264;11.436;2023-05-03T06:48:15;96927.69;;;8.31;100.00
13604;BME280;24578;48.264;11.436;2023-05-03T06:51:36;96920.84;;;8.30;100.00
13604;BME280;24578;48.264;11.436;2023-05-03T06:54:58;96925.78;;;8.35;100.00
13604;BME280;24578;48.264;11.436;2023-05-03T06:58:20;96929.56;;;8.45;100.00
13604;BME280;24578;48.264;11.436;2023-05-03T07:01:42;96919.84;;;8.50;100.00
13604;BME280;24578;48.264;11.436;2023-05-03T07:05:04;96920.59;;;8.52;100.00
13604;BME280;24578;48.264;11.436;2023-05-03T07:08:26;96924.94;;;8.68;100.00
13604;BME280;24578;48.264;11.436;2023-05-03T07:11:47;96920.53;;;8.86;100.00
13604;BME280;24578;48.264;11.436;2023-05-03T07:15:10;96913.09;;;8.96;100.00
13604;BME280;24578;48.264;11.436;2023-05-03T07:18:32;96911.09;;;9.01;100.00
13604;BME280;24578;48.264;11.436;2023-05-03T07:21:54;96910.09;;;9.20;100.00
13604;BME280;24578;48.264;11.436;2023-05-03T07:25:16;96908.75;;;9.12;100.00
13604;BME280;24578;48.264;11.436;2023-05-03T07:28:38;96918.00;;;9.17;100.00
13604;BME280;24578;48.264;11.436;2023-05-03T07:32:00;96911.59;;;9.24;100.00
13604;BME280;24578;48.264;11.436;2023-05-03T07:35:21;96913.00;;;9.29;100.00
13604;BME280;24578;48.264;11.436;2023-05-03T07:38:43;96907.22;;;9.40;100.00
13604;BME280;24578;48.264;11.436;2023-05-03T07:42:05;96902.47;;;9.63;100.00
13604;BME280;24578;48.264;11.436;2023-05-03T07:45:28;96901.13;;;9.72;100.00
13604;BME280;24578;48.264;11.436;2023-05-03T07:48:49;96897.59;;;9.73;100.00
13604;BME280;24578;48.264;11.436;2023-05-03T07:52:11;96903.16;;;9.81;100.00
13604;BME280;24578;48.264;11.436;2023-05-03T07:55:33;96896.72;;;9.88;100.00
13604;BME280;24578;48.264;11.436;2023-05-03T07:58:56;96902.34;;;9.95;100.00
13604;BME280;24578;48.264;11.436;2023-05-03T08:02:18;96904.19;;;9.93;100.00
13604;BME280;24578;48.264;11.436;2023-05-03T08:05:40;96908.91;;;9.86;100.00
13604;BME280;24578;48.264;11.436;2023-05-03T08:09:03;96899.03;;;9.93;100.00
13604;BME280;24578;48.264;11.436;2023-05-03T08:12:25;96900.41;;;10.13;100.00
13604;BME280;24578;48.264;11.436;2023-05-03T08:15:48;96896.66;;;10.19;100.00
13604;BME280;24578;48.264;11.436;2023-05-03T08:19:09;96898.66;;;10.14;100.00
13604;BME280;24578;48.264;11.436;2023-05-03T08:22:31;96892.41;;;10.18;100.00
13604;BME280;24578;48.264;11.436;2023-05-03T08:25:53;96890.34;;;10.23;100.00
13604;BME280;24578;48.264;11.436;2023-05-03T08:29:15;96894.97;;;10.32;100.00
13604;BME280;24578;48.264;11.436;2023-05-03T08:32:37;96887.13;;;10.19;100.00
13604;BME280;24578;48.264;11.436;2023-05-03T08:35:58;96895.06;;;10.16;100.00
13604;BME280;24578;48.264;11.436;2023-05-03T08:39:20;96893.22;;;10.18;100.00
13604;BME280;24578;48.264;11.436;2023-05-03T08:42:43;96892.09;;;10.37;100.00
13604;BME280;24578;48.264;11.436;2023-05-03T08:46:10;96896.00;;;10.59;100.00
13604;BME280;24578;48.264;11.436;2023-05-03T08:49:32;96891.25;;;10.80;100.00
13604;BME280;24578;48.264;11.436;2023-05-03T08:52:55;96882.56;;;10.81;100.00
13604;BME280;24578;48.264;11.436;2023-05-03T08:56:39;96889.13;;;11.00;100.00
13604;BME280;24578;48.264;11.436;2023-05-03T09:00:02;96885.84;;;10.98;100.00
13604;BME280;24578;48.264;11.436;2023-05-03T09:03:31;96891.69;;;11.14;100.00
13604;BME280;24578;48.264;11.436;2023-05-03T09:07:06;96895.91;;;11.42;100.00
13604;BME280;24578;48.264;11.436;2023-05-03T09:10:28;96903.41;;;11.60;100.00
13604;BME280;24578;48.264;11.436;2023-05-03T09:13:52;96912.09;;;11.46;100.00
13604;BME280;24578;48.264;11.436;2023-05-03T09:17:15;96915.47;;;11.34;100.00
13604;BME280;24578;48.264;11.436;2023-05-03T09:20:38;96911.69;;;11.12;100.00
13604;BME280;24578;48.264;11.436;2023-05-03T09:24:01;96914.28;;;11.12;100.00
13604;BME280;24578;48.264;11.436;2023-05-03T09:27:25;96921.41;;;11.08;100.00
13604;BME280;24578;48.264;11.436;2023-05-03T09:30:49;96922.53;;;11.04;100.00
13604;BME280;24578;48.264;11.436;2023-05-03T09:34:21;96915.66;;;11.18;100.00
13604;BME280;24578;48.264;11.436;2023-05-03T09:37:43;96900.47;;;11.39;100.00
13604;BME280;24578;48.264;11.436;2023-05-03T09:41:05;96901.22;;;11.54;100.00
13604;BME280;24578;48.264;11.436;2023-05-03T09:44:45;96900.13;;;11.71;100.00
13604;BME280;24578;48.264;11.436;2023-05-03T09:48:10;96909.59;;;11.98;100.00
13604;BME280;24578;48.264;11.436;2023-05-03T09:51:34;96901.13;;;12.09;100.00
13604;BME280;24578;48.264;11.436;2023-05-03T09:54:56;96904.25;;;12.14;100.00
13604;BME280;24578;48.264;11.436;2023-05-03T09:58:19;96904.94;;;12.29;100.00
13604;BME280;24578;48.264;11.436;2023-05-03T10:01:43;96904.00;;;12.43;100.00
13604;BME280;24578;48.264;11.436;2023-05-03T10:05:06;96905.59;;;12.70;100.00
13604;BME280;24578;48.264;11.436;2023-05-03T10:08:40;96892.25;;;12.87;100.00
13604;BME280;24578;48.264;11.436;2023-05-03T10:12:06;96892.09;;;13.02;100.00
13604;BME280;24578;48.264;11.436;2023-05-03T10:15:30;96898.56;;;12.96;100.00
13604;BME280;24578;48.264;11.436;2023-05-03T10:19:23;96893.38;;;12.96;100.00
13604;BME280;24578;48.264;11.436;2023-05-03T10:26:30;96887.16;;;13.34;100.00
13604;BME280;24578;48.264;11.436;2023-05-03T10:29:52;96892.50;;;13.68;100.00
13604;BME280;24578;48.264;11.436;2023-05-03T10:36:36;96885.00;;;14.56;100.00
13604;BME280;24578;48.264;11.436;2023-05-03T10:40:15;96881.03;;;15.40;100.00
13604;BME280;24578;48.264;11.436;2023-05-03T10:43:41;96878.50;;;15.71;100.00
13604;BME280;24578;48.264;11.436;2023-05-03T10:47:13;96889.03;;;16.33;100.00
13604;BME280;24578;48.264;11.436;2023-05-03T10:50:36;96886.78;;;16.59;100.00
13604;BME280;24578;48.264;11.436;2023-05-03T10:53:57;96876.34;;;17.20;100.00
13604;BME280;24578;48.264;11.436;2023-05-03T10:57:19;96869.81;;;18.31;100.00
13604;BME280;24578;48.264;11.436;2023-05-03T11:00:41;96877.63;;;18.13;100.00
13604;BME280;24578;48.264;11.436;2023-05-03T11:04:20;96878.50;;;17.74;100.00
13604;BME280;24578;48.264;11.436;2023-05-03T11:07:43;96871.75;;;17.81;100.00
13604;BME280;24578;48.264;11.436;2023-05-03T11:11:05;96865.97;;;17.68;100.00
13604;BME280;24578;48.264;11.436;2023-05-03T11:14:30;96870.97;;;17.51;100.00
13604;BME280;24578;48.264;11.436;2023-05-03T11:17:54;96863.44;;;17.95;100.00
13604;BME280;24578;48.264;11.436;2023-05-03T11:21:17;96860.06;;;18.23;100.00
13604;BME280;24578;48.264;11.436;2023-05-03T11:24:39;96860.06;;;18.61;100.00
13604;BME280;24578;48.264;11.436;2023-05-03T11:28:02;96849.88;;;19.40;100.00
13604;BME280;24578;48.264;11.436;2023-05-03T11:31:27;96841.00;;;19.41;100.00
13604;BME280;24578;48.264;11.436;2023-05-03T11:34:49;96843.25;;;19.80;100.00
13604;BME280;24578;48.264;11.436;2023-05-03T11:38:11;96834.09;;;20.96;100.00
13604;BME280;24578;48.264;11.436;2023-05-03T11:41:33;96821.59;;;21.98;87.83
13604;BME280;24578;48.264;11.436;2023-05-03T11:44:54;96820.31;;;21.77;86.47
13604;BME280;24578;48.264;11.436;2023-05-03T11:48:17;96821.06;;;22.59;76.21
13604;BME280;24578;48.264;11.436;2023-05-03T11:51:39;96809.22;;;23.09;74.04
13604;BME280;24578;48.264;11.436;2023-05-03T11:55:06;96805.34;;;23.59;69.45
13604;BME280;24578;48.264;11.436;2023-05-03T11:58:28;96807.06;;;23.51;62.32
13604;BME280;24578;48.264;11.436;2023-05-03T12:01:52;96804.63;;;23.50;63.57
13604;BME280;24578;48.264;11.436;2023-05-03T12:05:14;96806.75;;;23.69;58.61
13604;BME280;24578;48.264;11.436;2023-05-03T12:08:36;96804.84;;;23.25;56.89
13604;BME280;24578;48.264;11.436;2023-05-03T12:11:58;96796.25;;;23.61;59.27
13604;BME280;24578;48.264;11.436;2023-05-03T12:15:31;96803.00;;;23.79;57.26
13604;BME280;24578;48.264;11.436;2023-05-03T12:18:55;96791.53;;;23.86;56.17
13604;BME280;24578;48.264;11.436;2023-05-03T12:22:21;96785.09;;;23.89;54.15
13604;BME280;24578;48.264;11.436;2023-05-03T12:25:43;96787.47;;;23.99;51.48
13604;BME280;24578;48.264;11.436;2023-05-03T12:29:04;96797.09;;;23.92;47.62
13604;BME280;24578;48.264;11.436;2023-05-03T12:32:26;96786.53;;;23.92;48.84
13604;BME280;24578;48.264;11.436;2023-05-03T12:35:48;96777.25;;;24.11;45.71
13604;BME280;24578;48.264;11.436;2023-05-03T12:39:10;96777.19;;;24.56;46.24
13604;BME280;24578;48.264;11.436;2023-05-03T12:42:32;96772.97;;;24.10;45.33
13604;BME280;24578;48.264;11.436;2023-05-03T12:45:54;96767.56;;;23.58;49.96
13604;BME280;24578;48.264;11.436;2023-05-03T12:49:19;96767.16;;;23.99;45.76
13604;BME280;24578;48.264;11.436;2023-05-03T12:52:41;96762.75;;;23.62;45.38
13604;BME280;24578;48.264;11.436;2023-05-03T12:56:02;96756.09;;;23.96;46.05
13604;BME280;24578;48.264;11.436;2023-05-03T12:59:24;96760.38;;;24.63;43.14
13604;BME280;24578;48.264;11.436;2023-05-03T13:02:46;96749.75;;;24.78;41.67
13604;BME280;24578;48.264;11.436;2023-05-03T13:06:08;96749.38;;;24.82;41.44
13604;BME280;24578;48.264;11.436;2023-05-03T13:09:29;96750.00;;;24.10;43.12
13604;BME280;24578;48.264;11.436;2023-05-03T13:12:52;96745.22;;;23.07;45.70
13604;BME280;24578;48.264;11.436;2023-05-03T13:16:14;96736.84;;;23.04;44.52
13604;BME280;24578;48.264;11.436;2023-05-03T13:19:36;96732.50;;;23.79;42.97
13604;BME280;24578;48.264;11.436;2023-05-03T13:22:58;96723.13;;;24.65;41.55
13604;BME280;24578;48.264;11.436;2023-05-03T13:26:20;96724.13;;;25.29;37.34
13604;BME280;24578;48.264;11.436;2023-05-03T13:29:42;96712.09;;;25.90;37.31
13604;BME280;24578;48.264;11.436;2023-05-03T13:33:04;96702.22;;;27.01;33.35
13604;BME280;24578;48.264;11.436;2023-05-03T13:36:26;96702.41;;;27.47;33.09
13604;BME280;24578;48.264;11.436;2023-05-03T13:39:49;96697.19;;;27.86;33.15
13604;BME280;24578;48.264;11.436;2023-05-03T13:43:11;96695.09;;;26.20;33.75
13604;BME280;24578;48.264;11.436;2023-05-03T13:46:34;96706.34;;;23.99;38.17
13604;BME280;24578;48.264;11.436;2023-05-03T13:49:57;96698.22;;;23.86;40.54
13604;BME280;24578;48.264;11.436;2023-05-03T13:53:19;96693.22;;;24.86;36.09
13604;BME280;24578;48.264;11.436;2023-05-03T13:56:41;96700.22;;;23.84;35.45
13604;BME280;24578;48.264;11.436;2023-05-03T14:00:03;96694.50;;;22.19;40.48
13604;BME280;24578;48.264;11.436;2023-05-03T14:03:27;96694.09;;;21.99;43.79
13604;BME280;24578;48.264;11.436;2023-05-03T14:06:49;96685.69;;;22.81;44.70
13604;BME280;24578;48.264;11.436;2023-05-03T14:10:11;96691.13;;;22.42;44.58
13604;BME280;24578;48.264;11.436;2023-05-03T14:13:33;96689.19;;;22.97;43.71
13604;BME280;24578;48.264;11.436;2023-05-03T14:16:54;96671.03;;;24.87;38.06
13604;BME280;24578;48.264;11.436;2023-05-03T14:20:16;96671.13;;;26.68;32.93
13604;BME280;24578;48.264;11.436;2023-05-03T14:23:38;96666.81;;;27.34;31.56
13604;BME280;24578;48.264;11.436;2023-05-03T14:27:00;96669.09;;;26.77;33.26
13604;BME280;24578;48.264;11.436;2023-05-03T14:30:23;96684.63;;;25.06;32.92
13604;BME280;24578;48.264;11.436;2023-05-03T14:33:45;96669.34;;;23.01;35.77
13604;BME280;24578;48.264;11.436;2023-05-03T14:37:06;96669.16;;;21.13;39.45
13604;BME280;24578;48.264;11.436;2023-05-03T14:40:28;96677.00;;;20.22;44.13
13604;BME280;24578;48.264;11.436;2023-05-03T14:43:50;96676.94;;;20.06;47.23
13604;BME280;24578;48.264;11.436;2023-05-03T14:47:12;96674.94;;;19.91;47.45
13604;BME280;24578;48.264;11.436;2023-05-03T14:50:33;96674.81;;;19.40;46.85
13604;BME280;24578;48.264;11.436;2023-05-03T14:53:55;96677.56;;;19.04;49.60
13604;BME280;24578;48.264;11.436;2023-05-03T14:57:17;96667.00;;;18.96;49.60
13604;BME280;24578;48.264;11.436;2023-05-03T15:00:39;96662.59;;;18.78;49.87
13604;BME280;24578;48.264;11.436;2023-05-03T15:04:02;96669.56;;;18.51;51.11
13604;BME280;24578;48.264;11.436;2023-05-03T15:07:24;96663.44;;;18.42;50.30
13604;BME280;24578;48.264;11.436;2023-05-03T15:10:46;96658.19;;;18.24;50.47
13604;BME280;24578;48.264;11.436;2023-05-03T15:14:08;96666.41;;;18.11;49.41
13604;BME280;24578;48.264;11.436;2023-05-03T15:17:31;96669.88;;;18.12;49.31
13604;BME280;24578;48.264;11.436;2023-05-03T15:20:53;96660.44;;;18.19;51.37
13604;BME280;24578;48.264;11.436;2023-05-03T15:24:16;96658.56;;;18.30;54.68
13604;BME280;24578;48.264;11.436;2023-05-03T15:27:38;96670.16;;;18.45;55.02
13604;BME280;24578;48.264;11.436;2023-05-03T15:31:00;96673.63;;;18.46;54.04
13604;BME280;24578;48.264;11.436;2023-05-03T15:34:22;96671.06;;;18.36;52.74
13604;BME280;24578;48.264;11.436;2023-05-03T15:37:44;96664.81;;;18.29;52.78
13604;BME280;24578;48.264;11.436;2023-05-03T15:41:06;96674.78;;;18.15;52.75
13604;BME280;24578;48.264;11.436;2023-05-03T15:44:28;96670.97;;;18.09;52.35
13604;BME280;24578;48.264;11.436;2023-05-03T15:47:50;96663.84;;;18.02;51.20
13604;BME280;24578;48.264;11.436;2023-05-03T15:51:12;96667.84;;;18.06;51.40
13604;BME280;24578;48.264;11.436;2023-05-03T15:54:34;96657.88;;;18.09;52.10
13604;BME280;24578;48.264;11.436;2023-05-03T15:57:55;96654.28;;;18.10;53.64
13604;BME280;24578;48.264;11.436;2023-05-03T16:01:18;96666.00;;;18.34;54.53
13604;BME280;24578;48.264;11.436;2023-05-03T16:04:40;96670.31;;;18.62;53.98
13604;BME280;24578;48.264;11.436;2023-05-03T16:08:02;96665.19;;;18.52;53.14
13604;BME280;24578;48.264;11.436;2023-05-03T16:11:24;96663.06;;;18.37;52.48
13604;BME280;24578;48.264;11.436;2023-05-03T16:14:46;96660.56;;;18.00;53.61
13604;BME280;24578;48.264;11.436;2023-05-03T16:18:11;96667.13;;;17.76;55.88
13604;BME280;24578;48.264;11.436;2023-05-03T16:21:33;96670.72;;;17.47;57.73
13604;BME280;24578;48.264;11.436;2023-05-03T16:24:54;96663.22;;;17.14;57.04
13604;BME280;24578;48.264;11.436;2023-05-03T16:28:16;96666.03;;;16.73;59.13
13604;BME280;24578;48.264;11.436;2023-05-03T16:31:38;96660.97;;;16.42;61.42
13604;BME280;24578;48.264;11.436;2023-05-03T16:35:01;96659.84;;;16.25;62.82
13604;BME280;24578;48.264;11.436;2023-05-03T16:38:23;96657.19;;;16.06;63.96
13604;BME280;24578;48.264;11.436;2023-05-03T16:41:50;96653.09;;;16.13;63.74
13604;BME280;24578;48.264;11.436;2023-05-03T16:45:12;96658.56;;;16.10;63.02
13604;BME280;24578;48.264;11.436;2023-05-03T16:48:37;96659.28;;;16.12;62.85
13604;BME280;24578;48.264;11.436;2023-05-03T16:51:59;96657.91;;;16.18;59.78
13604;BME280;24578;48.264;11.436;2023-05-03T16:55:21;96654.75;;;16.14;59.70
13604;BME280;24578;48.264;11.436;2023-05-03T16:58:43;96665.03;;;16.16;60.59
13604;BME280;24578;48.264;11.436;2023-05-03T17:02:05;96652.69;;;16.18;62.36
13604;BME280;24578;48.264;11.436;2023-05-03T17:05:26;96654.06;;;16.12;64.85
13604;BME280;24578;48.264;11.436;2023-05-03T17:08:53;96658.72;;;16.08;64.61
13604;BME280;24578;48.264;11.436;2023-05-03T17:12:15;96658.69;;;15.98;65.50
13604;BME280;24578;48.264;11.436;2023-05-03T17:15:36;96665.09;;;15.84;66.85
13604;BME280;24578;48.264;11.436;2023-05-03T17:18:59;96667.66;;;15.75;68.71
13604;BME280;24578;48.264;11.436;2023-05-03T17:22:21;96666.31;;;15.71;69.63
13604;BME280;24578;48.264;11.436;2023-05-03T17:25:43;96669.84;;;15.60;71.36
13604;BME280;24578;48.264;11.436;2023-05-03T17:29:04;96665.38;;;15.41;72.18
13604;BME280;24578;48.264;11.436;2023-05-03T17:32:28;96666.13;;;15.31;74.56
13604;BME280;24578;48.264;11.436;2023-05-03T17:35:51;96672.53;;;15.17;75.81
13604;BME280;24578;48.264;11.436;2023-05-03T17:39:13;96668.31;;;15.05;76.58
13604;BME280;24578;48.264;11.436;2023-05-03T17:42:36;96663.88;;;14.96;76.68
13604;BME280;24578;48.264;11.436;2023-05-03T17:46:05;96663.25;;;14.82;77.65
13604;BME280;24578;48.264;11.436;2023-05-03T17:49:36;96663.75;;;14.76;78.79
13604;BME280;24578;48.264;11.436;2023-05-03T17:52:58;96663.22;;;14.61;79.38